Juneau International Airport
PAJN : now visible

Airfield :











YOU CAN JOIN US ON...

 
LOGIN :

Register | Disclaimer

   EN    FR    IT 

 









Legend :    VFR   Marginal VFR   IFR   Intensive IFR   Very Intensive IFR
Visi :
Ceiling :
>= 8 km
>= 3000ft
5 to 8 km
1000 to 3000 ft
1500m to 5 km
500 to 1000 ft
800 to 1500m
200 to 500 ft
< 800m
< 200 ft
Symbols :   Thunderstorms  Fog  Heavy snow  Heavy precipitations  Wind > 20 kt






- Airport Elevation : 21 ft
- IATA code : JNU


PAJN - Juneau International

CURRENT METAR :
  • 170053Z 26008KT 10SM FEW065 FEW120 FEW300 SCT350 22/07 A3000 RMK AO2 SLP160 T02220072 $

EXPIRED METARs :
  • 162353Z 30008KT 270V350 10SM FEW060 FEW100 FEW220 FEW300 22/07 A3002 RMK AO2 SLP166 T02170072 10222 20156 57012 $
  • 162253Z 27007KT 10SM FEW055 FEW100 FEW220 22/09 A3004 RMK AO2 SLP171 T02170089 $
  • 162153Z 28008KT 230V320 10SM FEW055 FEW100 FEW220 20/08 A3005 RMK AO2 SLP174 T02000083 $
  • 162053Z 28006KT 10SM FEW065 FEW100 FEW220 19/08 A3006 RMK AO2 SLP178 T01940083 58008 $

TAF PAJN
Valid from the 17 at 00:00 until the 18 at 00:00 UTC


162320Z 1700/1724 26008KT P6SM FEW080 BKN200
FM170500 VRB05KT P6SM SKC
FM171700 24007KT P6SM SCT050
PAZA FIR / North America



MET'MAP, your aeronautical weather chart ! - Copyright ORBIFLY December 2007 - Disclaimer

ORBIFLY MET'MAP TEAM :

Programming & Development : Alexandra Zaïnal
Original concept : Baudouin d'Aumeries
Technical & hardware support : Manuel Goepfert
Assistance : Marc-Olivier Méhu




SOURCES & CREDITS :

   NOAA       Earth
Advisory